createdAt,value
2022-09-29T00:00:51.601Z,97027.31
2022-09-29T00:04:06.255Z,97024.56
2022-09-29T00:07:09.801Z,97033.97
2022-09-29T00:10:13.055Z,97033.97
2022-09-29T00:13:17.537Z,97040.59
2022-09-29T00:16:22.103Z,97045.28
2022-09-29T00:19:25.594Z,97042.09
2022-09-29T00:22:28.644Z,97022.84
2022-09-29T00:25:32.142Z,97028.34
2022-09-29T00:28:36.176Z,97022.03
2022-09-29T00:31:40.884Z,97015.75
2022-09-29T00:34:44.620Z,97018.84
2022-09-29T00:37:48.295Z,97009.78
2022-09-29T00:40:51.334Z,97027.09
2022-09-29T00:43:58.475Z,97023.53
2022-09-29T00:47:06.303Z,97037.63
2022-09-29T00:50:16.165Z,97049.09
2022-09-29T00:53:21.869Z,97052.19
2022-09-29T00:56:26.661Z,97045.88
2022-09-29T00:59:38.291Z,97040.38
2022-09-29T01:02:48.376Z,97042.31
2022-09-29T01:05:56.510Z,97050.25
2022-09-29T01:09:02.606Z,97067.88
2022-09-29T01:12:06.344Z,97050.13
2022-09-29T01:15:10.413Z,97056.88
2022-09-29T01:18:14.886Z,97069.81
2022-09-29T01:21:32.864Z,97050.91
2022-09-29T01:24:59.931Z,97069.03
2022-09-29T01:28:50.169Z,97069.03
2022-09-29T01:31:59.244Z,97063.06
2022-09-29T01:35:10.884Z,97071.31
2022-09-29T01:38:35.168Z,97086.66
2022-09-29T01:41:45.889Z,97080.69
2022-09-29T01:44:54.826Z,97079.88
2022-09-29T01:48:02.756Z,97073.59
2022-09-29T01:51:11.804Z,97073.59
2022-09-29T01:54:22.050Z,97072.44
2022-09-29T01:57:32.308Z,97075.19
2022-09-29T02:00:42.094Z,97094.44
2022-09-29T02:03:53.015Z,97099.94
2022-09-29T02:07:03.739Z,97095.59
2022-09-29T02:10:12.277Z,97088.13
2022-09-29T02:13:17.079Z,97108.53
2022-09-29T02:16:25.794Z,97115.63
2022-09-29T02:19:35.216Z,97104.97
2022-09-29T02:22:39.387Z,97105.78
2022-09-29T02:25:44.374Z,97100.28
2022-09-29T02:28:47.701Z,97099.47
2022-09-29T02:31:51.336Z,97108.53
2022-09-29T02:34:57.324Z,97109.78
2022-09-29T02:38:07.414Z,97110.25
2022-09-29T02:41:27.718Z,97101.09
2022-09-29T02:44:52.095Z,97104.16
2022-09-29T02:48:13.950Z,97095.13
2022-09-29T02:51:24.949Z,97093.97
2022-09-29T02:54:50.491Z,97087.66
2022-09-29T02:58:00.504Z,97092.38
2022-09-29T03:01:05.645Z,97089.63
2022-09-29T03:04:09.582Z,97092.38
2022-09-29T03:07:14.178Z,97097.06
2022-09-29T03:10:19.190Z,97088.81
2022-09-29T03:13:22.196Z,97090.75
2022-09-29T03:16:25.772Z,97107.25
2022-09-29T03:19:29.128Z,97095.44
2022-09-29T03:22:34.417Z,97102.91
2022-09-29T03:25:37.614Z,97106.44
2022-09-29T03:28:41.057Z,97101.75
2022-09-29T03:31:44.569Z,97102.56
2022-09-29T03:34:48.178Z,97114.38
2022-09-29T03:37:53.300Z,97115.16
2022-09-29T03:40:56.934Z,97113.56
2022-09-29T03:44:00.185Z,97105.66
2022-09-29T03:47:03.654Z,97105.66
2022-09-29T03:50:07.889Z,97111.16
2022-09-29T03:53:12.729Z,97116.66
2022-09-29T03:56:16.243Z,97109.56
2022-09-29T03:59:19.468Z,97112.31
2022-09-29T04:02:22.617Z,97119.41
2022-09-29T04:05:27.539Z,97127.63
2022-09-29T04:08:31.857Z,97145.75
2022-09-29T04:11:35.714Z,97137.84
2022-09-29T04:14:38.700Z,97146.88
2022-09-29T04:17:42.290Z,97157.06
2022-09-29T04:20:45.315Z,97165.31
2022-09-29T04:23:50.304Z,97174.38
2022-09-29T04:26:53.608Z,97168.88
2022-09-29T04:29:56.879Z,97161.81
2022-09-29T04:33:00.226Z,97158.25
2022-09-29T04:36:03.592Z,97158.69
2022-09-29T04:39:08.453Z,97161.81
2022-09-29T04:42:11.727Z,97162.56
2022-09-29T04:45:15.204Z,97157.88
2022-09-29T04:48:18.350Z,97160.16
2022-09-29T04:51:21.556Z,97159.06
2022-09-29T04:54:26.130Z,97150.00
2022-09-29T04:57:29.308Z,97163.75
2022-09-29T05:00:33.131Z,97162.91
2022-09-29T05:03:36.231Z,97168.41
2022-09-29T05:06:39.677Z,97170.06
2022-09-29T05:09:44.207Z,97173.91
2022-09-29T05:12:51.403Z,97179.41
2022-09-29T05:15:57.406Z,97176.66
2022-09-29T05:19:00.902Z,97178.59
2022-09-29T05:22:04.345Z,97182.16
2022-09-29T05:25:10.625Z,97175.84
2022-09-29T05:28:15.545Z,97178.59
2022-09-29T05:31:19.047Z,97179.41
2022-09-29T05:34:22.687Z,97173.91
2022-09-29T05:37:26.162Z,97181.34
2022-09-29T05:40:30.497Z,97179.41
2022-09-29T05:43:33.797Z,97178.59
2022-09-29T05:46:36.747Z,97183.78
2022-09-29T05:49:40.125Z,97188.50
2022-09-29T05:52:43.242Z,97199.13
2022-09-29T05:55:47.771Z,97208.53
2022-09-29T05:58:51.623Z,97198.31
2022-09-29T06:01:54.914Z,97204.63
2022-09-29T06:04:58.055Z,97207.38
2022-09-29T06:08:04.045Z,97204.63
2022-09-29T06:11:11.038Z,97217.22
2022-09-29T06:14:14.614Z,97207.38
2022-09-29T06:17:17.736Z,97205.44
2022-09-29T06:20:21.142Z,97200.72
2022-09-29T06:23:24.176Z,97200.72
2022-09-29T06:26:29.252Z,97201.53
2022-09-29T06:29:32.274Z,97209.44
2022-09-29T06:32:36.065Z,97209.13
2022-09-29T06:35:57.122Z,97219.78
2022-09-29T06:39:00.457Z,97224.59
2022-09-29T06:42:05.299Z,97234.47
2022-09-29T06:45:11.123Z,97237.22
2022-09-29T06:48:14.135Z,97233.66
2022-09-29T06:51:17.303Z,97226.78
2022-09-29T06:54:24.982Z,97226.72
2022-09-29T06:57:29.730Z,97229.13
2022-09-29T07:00:35.052Z,97224.78
2022-09-29T07:03:38.468Z,97227.53
2022-09-29T07:06:41.457Z,97229.91
2022-09-29T07:09:45.023Z,97240.13
2022-09-29T07:12:49.381Z,97234.28
2022-09-29T07:15:54.450Z,97228.78
2022-09-29T07:18:57.417Z,97233.94
2022-09-29T07:22:00.547Z,97230.03
2022-09-29T07:25:03.895Z,97246.22
2022-09-29T07:28:08.560Z,97246.97
2022-09-29T07:31:15.799Z,97251.31
2022-09-29T07:34:19.375Z,97255.72
2022-09-29T07:37:22.475Z,97248.13
2022-09-29T07:40:26.505Z,97250.38
2022-09-29T07:43:32.038Z,97249.16
2022-09-29T07:46:35.464Z,97252.25
2022-09-29T07:49:38.873Z,97260.19
2022-09-29T07:52:42.013Z,97259.72
2022-09-29T07:55:45.000Z,97265.91
2022-09-29T07:58:50.894Z,97269.00
2022-09-29T08:01:54.666Z,97278.38
2022-09-29T08:05:02.267Z,97272.88
2022-09-29T08:08:07.483Z,97278.38
2022-09-29T08:11:25.307Z,97280.63
2022-09-29T08:14:34.192Z,97278.22
2022-09-29T08:17:37.668Z,97281.31
2022-09-29T08:20:40.738Z,97290.19
2022-09-29T08:23:44.808Z,97291.34
2022-09-29T08:26:48.154Z,97293.63
2022-09-29T08:29:53.650Z,97292.69
2022-09-29T08:32:56.885Z,97290.13
2022-09-29T08:36:03.634Z,97291.72
2022-09-29T08:39:06.717Z,97291.94
2022-09-29T08:42:21.795Z,97301.56
2022-09-29T08:45:31.917Z,97305.94
2022-09-29T08:48:54.196Z,97302.72
2022-09-29T08:52:16.172Z,97300.78
2022-09-29T08:55:32.180Z,97313.03
2022-09-29T08:58:36.063Z,97305.94
2022-09-29T09:01:57.209Z,97310.94
2022-09-29T09:05:25.796Z,97309.81
2022-09-29T09:08:49.626Z,97314.84
2022-09-29T09:12:08.862Z,97312.91
2022-09-29T09:15:27.746Z,97310.94
2022-09-29T09:22:22.190Z,97325.50
2022-09-29T09:25:31.476Z,97313.69
2022-09-29T09:28:38.924Z,97321.47
2022-09-29T09:31:45.964Z,97321.94
2022-09-29T09:34:59.575Z,97318.72
2022-09-29T09:38:13.454Z,97321.47
2022-09-29T09:41:21.762Z,97312.75
2022-09-29T09:44:33.183Z,97330.03
2022-09-29T09:47:41.812Z,97320.66
2022-09-29T09:50:46.763Z,97319.03
2022-09-29T09:53:52.611Z,97329.22
2022-09-29T09:57:28.926Z,97326.47
2022-09-29T10:00:37.535Z,97329.91
2022-09-29T10:03:40.765Z,97331.53
2022-09-29T10:06:45.306Z,97339.75
2022-09-29T10:09:49.146Z,97337.47
2022-09-29T10:13:00.104Z,97340.56
2022-09-29T10:16:19.340Z,97337.34
2022-09-29T10:19:24.319Z,97340.88
2022-09-29T10:22:31.051Z,97340.41
2022-09-29T10:25:34.809Z,97344.78
2022-09-29T10:28:42.908Z,97346.72
2022-09-29T10:32:01.142Z,97347.19
2022-09-29T10:35:11.473Z,97346.72
2022-09-29T10:38:24.873Z,97341.22
2022-09-29T10:41:28.807Z,97333.78
2022-09-29T10:44:34.291Z,97343.97
2022-09-29T10:47:37.412Z,97340.22
2022-09-29T10:50:51.513Z,97342.50
2022-09-29T10:53:55.888Z,97344.78
2022-09-29T10:57:01.244Z,97343.63
2022-09-29T11:00:06.777Z,97349.47
2022-09-29T11:03:20.935Z,97351.41
2022-09-29T11:06:29.039Z,97350.25
2022-09-29T11:09:40.635Z,97356.88
2022-09-29T11:12:45.837Z,97353.66
2022-09-29T11:15:50.254Z,97355.59
2022-09-29T11:18:57.616Z,97352.53
2022-09-29T11:22:29.741Z,97353.34
2022-09-29T11:26:07.898Z,97358.69
2022-09-29T11:29:33.351Z,97362.72
2022-09-29T11:33:01.043Z,97367.72
2022-09-29T11:36:16.110Z,97367.25
2022-09-29T11:39:37.838Z,97368.03
2022-09-29T11:43:01.616Z,97364.66
2022-09-29T11:46:24.071Z,97363.53
2022-09-29T11:49:56.530Z,97351.72
2022-09-29T11:53:21.453Z,97351.41
2022-09-29T11:56:44.185Z,97353.66
2022-09-29T12:00:10.498Z,97347.03
2022-09-29T12:03:33.160Z,97345.44
2022-09-29T12:06:55.470Z,97348.66
2022-09-29T12:10:27.152Z,97354.00
2022-09-29T12:13:45.951Z,97353.66
2022-09-29T12:16:58.401Z,97356.75
2022-09-29T12:20:07.034Z,97359.28
2022-09-29T12:23:14.785Z,97357.06
2022-09-29T12:26:21.001Z,97356.75
2022-09-29T12:29:35.149Z,97364.16
2022-09-29T12:32:45.842Z,97369.66
2022-09-29T12:35:59.092Z,97373.69
2022-09-29T12:39:13.152Z,97376.75
2022-09-29T12:42:37.855Z,97371.28
2022-09-29T12:45:53.022Z,97370.28
2022-09-29T12:49:05.716Z,97358.97
2022-09-29T12:52:17.162Z,97357.03
2022-09-29T12:55:29.856Z,97360.59
2022-09-29T12:58:42.451Z,97355.75
2022-09-29T13:01:52.521Z,97360.13
2022-09-29T13:05:16.958Z,97365.13
2022-09-29T13:08:46.249Z,97366.75
2022-09-29T13:12:07.661Z,97372.72
2022-09-29T13:15:40.529Z,97372.56
2022-09-29T13:19:39.724Z,97384.03
2022-09-29T13:23:19.195Z,97388.72
2022-09-29T13:26:47.554Z,97381.59
2022-09-29T13:29:56.734Z,97392.25
2022-09-29T13:33:09.372Z,97396.94
2022-09-29T13:36:25.243Z,97397.44
2022-09-29T13:39:29.705Z,97400.31
2022-09-29T13:42:44.776Z,97396.09
2022-09-29T13:45:48.163Z,97396.09
2022-09-29T13:49:03.729Z,97391.41
2022-09-29T13:52:31.851Z,97381.72
2022-09-29T13:55:52.084Z,97396.72
2022-09-29T13:59:01.200Z,97398.69
2022-09-29T14:02:21.223Z,97399.97
2022-09-29T14:05:48.411Z,97391.03
2022-09-29T14:08:55.766Z,97399.44
2022-09-29T14:12:04.215Z,97399.59
2022-09-29T14:15:13.056Z,97401.19
2022-09-29T14:18:31.947Z,97400.56
2022-09-29T14:21:54.505Z,97410.91
2022-09-29T14:25:30.451Z,97414.59
2022-09-29T14:28:43.065Z,97413.47
2022-09-29T14:31:52.975Z,97419.41
2022-09-29T14:34:56.700Z,97410.53
2022-09-29T14:38:05.787Z,97420.56
2022-09-29T14:41:27.800Z,97416.16
2022-09-29T14:44:51.090Z,97423.28
2022-09-29T14:48:21.983Z,97428.16
2022-09-29T14:51:51.073Z,97436.72
2022-09-29T14:55:06.577Z,97446.25
2022-09-29T14:58:27.107Z,97442.13
2022-09-29T15:01:36.919Z,97442.66
2022-09-29T15:04:40.490Z,97440.56
2022-09-29T15:07:44.114Z,97442.84
2022-09-29T15:10:47.295Z,97445.09
2022-09-29T15:13:50.443Z,97450.44
2022-09-29T15:17:09.147Z,97454.69
2022-09-29T15:20:19.944Z,97450.97
2022-09-29T15:23:59.025Z,97460.34
2022-09-29T15:27:03.795Z,97471.34
2022-09-29T15:30:16.938Z,97469.25
2022-09-29T15:33:25.058Z,97469.56
2022-09-29T15:36:33.989Z,97471.84
2022-09-29T15:39:51.335Z,97479.63
2022-09-29T15:42:55.652Z,97482.69
2022-09-29T15:46:02.527Z,97477.53
2022-09-29T15:49:15.591Z,97480.59
2022-09-29T15:52:23.540Z,97484.97
2022-09-29T15:55:26.730Z,97476.41
2022-09-29T15:58:38.056Z,97483.19
2022-09-29T16:01:41.117Z,97488.31
2022-09-29T16:04:48.277Z,97483.19
2022-09-29T16:08:03.240Z,97483.34
2022-09-29T16:11:10.047Z,97482.88
2022-09-29T16:14:21.525Z,97476.56
2022-09-29T16:17:26.530Z,97477.09
2022-09-29T16:20:34.456Z,97488.22
2022-09-29T16:23:43.362Z,97488.88
2022-09-29T16:26:48.802Z,97500.47
2022-09-29T16:30:18.354Z,97501.97
2022-09-29T16:33:23.642Z,97500.19
2022-09-29T16:36:33.722Z,97502.13
2022-09-29T16:39:43.626Z,97505.03
2022-09-29T16:42:53.682Z,97512.94
2022-09-29T16:46:00.100Z,97517.59
2022-09-29T16:49:03.360Z,97523.75
2022-09-29T16:52:16.501Z,97525.97
2022-09-29T16:55:28.514Z,97534.84
2022-09-29T16:58:32.097Z,97534.22
2022-09-29T17:01:35.498Z,97542.25
2022-09-29T17:04:41.120Z,97539.34
2022-09-29T17:07:45.743Z,97557.28
2022-09-29T17:10:49.901Z,97547.91
2022-09-29T17:13:53.181Z,97543.22
2022-09-29T17:16:56.185Z,97556.28
2022-09-29T17:19:59.360Z,97555.47
2022-09-29T17:23:04.762Z,97550.13
2022-09-29T17:26:37.761Z,97558.88
2022-09-29T17:29:41.344Z,97554.19
2022-09-29T17:32:46.598Z,97571.75
2022-09-29T17:35:55.752Z,97567.22
2022-09-29T17:39:00.785Z,97563.50
2022-09-29T17:42:04.013Z,97568.19
2022-09-29T17:45:08.464Z,97569.47
2022-09-29T17:48:12.218Z,97576.97
2022-09-29T17:51:18.200Z,97581.13
2022-09-29T17:54:27.061Z,97583.06
2022-09-29T17:57:32.264Z,97592.44
2022-09-29T18:00:38.249Z,97587.75
2022-09-29T18:03:42.268Z,97594.06
2022-09-29T18:06:45.416Z,97595.19
2022-09-29T18:09:50.137Z,97595.53
2022-09-29T18:12:53.231Z,97592.78
2022-09-29T18:15:57.045Z,97596.34
2022-09-29T18:19:00.047Z,97601.03
2022-09-29T18:22:06.091Z,97599.56
2022-09-29T18:25:11.121Z,97597.94
2022-09-29T18:28:16.061Z,97601.84
2022-09-29T18:31:24.519Z,97606.53
2022-09-29T18:34:30.939Z,97601.84
2022-09-29T18:37:33.951Z,97589.22
2022-09-29T18:40:39.899Z,97587.16
2022-09-29T18:43:43.250Z,97593.44
2022-09-29T18:46:46.733Z,97602.81
2022-09-29T18:49:49.825Z,97600.06
2022-09-29T18:52:53.522Z,97615.25
2022-09-29T18:56:02.901Z,97601.97
2022-09-29T18:59:07.655Z,97609.25
2022-09-29T19:02:16.789Z,97615.09
2022-09-29T19:05:23.689Z,97625.28
2022-09-29T19:08:27.546Z,97616.72
2022-09-29T19:11:33.601Z,97622.84
2022-09-29T19:14:37.999Z,97628.84
2022-09-29T19:17:41.501Z,97624.63
2022-09-29T19:20:44.547Z,97620.63
2022-09-29T19:23:47.932Z,97618.69
2022-09-29T19:26:52.505Z,97625.66
2022-09-29T19:29:59.632Z,97639.25
2022-09-29T19:33:06.507Z,97640.88
2022-09-29T19:36:16.711Z,97634.84
2022-09-29T19:39:19.836Z,97644.56
2022-09-29T19:42:24.931Z,97646.47
2022-09-29T19:45:28.095Z,97646.78
2022-09-29T19:48:31.423Z,97647.78
2022-09-29T19:51:57.350Z,97643.91
2022-09-29T19:55:00.564Z,97641.50
2022-09-29T19:58:04.910Z,97644.25
2022-09-29T20:01:10.604Z,97648.13
2022-09-29T20:04:14.476Z,97652.81
2022-09-29T20:07:17.956Z,97645.03
2022-09-29T20:10:22.471Z,97636.19
2022-09-29T20:13:27.243Z,97636.00
2022-09-29T20:16:33.429Z,97638.44
2022-09-29T20:19:36.521Z,97646.19
2022-09-29T20:22:40.211Z,97647.81
2022-09-29T20:25:43.386Z,97645.72
2022-09-29T20:28:50.366Z,97662.38
2022-09-29T20:31:55.129Z,97671.09
2022-09-29T20:34:58.579Z,97668.50
2022-09-29T20:38:03.538Z,97674.50
2022-09-29T20:41:07.415Z,97683.88
2022-09-29T20:44:12.954Z,97700.84
2022-09-29T20:47:16.093Z,97705.84
2022-09-29T20:50:19.300Z,97711.66
2022-09-29T20:53:24.245Z,97712.78
2022-09-29T20:56:32.735Z,97716.03
2022-09-29T20:59:37.072Z,97718.94
2022-09-29T21:02:40.323Z,97710.69
2022-09-29T21:05:45.306Z,97717.47
2022-09-29T21:08:48.608Z,97722.97
2022-09-29T21:11:54.080Z,97723.78
2022-09-29T21:14:58.733Z,97722.16
2022-09-29T21:18:02.108Z,97726.84
2022-09-29T21:21:08.759Z,97736.22
2022-09-29T21:24:14.653Z,97723.94
2022-09-29T21:27:19.031Z,97728.31
2022-09-29T21:30:23.429Z,97728.31
2022-09-29T21:33:26.839Z,97729.44
2022-09-29T21:36:32.742Z,97730.56
2022-09-29T21:39:36.082Z,97739.31
2022-09-29T21:42:39.226Z,97748.03
2022-09-29T21:45:43.835Z,97749.16
2022-09-29T21:48:51.357Z,97752.72
2022-09-29T21:51:57.078Z,97750.31
2022-09-29T21:55:02.265Z,97746.75
2022-09-29T21:58:06.741Z,97756.59
2022-09-29T22:01:12.026Z,97753.53
2022-09-29T22:04:16.077Z,97753.22
2022-09-29T22:07:19.816Z,97760.38
2022-09-29T22:10:23.332Z,97765.50
2022-09-29T22:13:27.594Z,97768.75
2022-09-29T22:16:35.467Z,97768.75
2022-09-29T22:19:38.875Z,97773.13
2022-09-29T22:22:42.270Z,97777.50
2022-09-29T22:25:47.619Z,97766.81
2022-09-29T22:28:52.182Z,97768.75
2022-09-29T22:31:56.634Z,97766.00
2022-09-29T22:35:00.306Z,97762.13
2022-09-29T22:38:04.315Z,97764.88
2022-09-29T22:41:12.187Z,97762.13
2022-09-29T22:44:15.639Z,97761.31
2022-09-29T22:47:20.086Z,97756.63
2022-09-29T22:50:25.664Z,97752.75
2022-09-29T22:53:29.046Z,97749.19
2022-09-29T22:56:32.827Z,97743.69
2022-09-29T22:59:36.338Z,97751.94
2022-09-29T23:02:40.820Z,97759.38
2022-09-29T23:05:44.136Z,97753.88
2022-09-29T23:08:47.301Z,97759.38
2022-09-29T23:11:50.671Z,97761.31
2022-09-29T23:14:53.604Z,97759.38
2022-09-29T23:17:58.251Z,97771.19
2022-09-29T23:21:03.193Z,97766.50
2022-09-29T23:24:07.333Z,97762.59
2022-09-29T23:27:10.642Z,97767.63
2022-09-29T23:30:13.756Z,97761.31
2022-09-29T23:33:18.402Z,97763.25
2022-09-29T23:36:21.664Z,97763.25
2022-09-29T23:39:23.825Z,97766.00
2022-09-29T23:42:27.162Z,97775.88
2022-09-29T23:45:30.388Z,97766.81
2022-09-29T23:48:34.928Z,97777.50
2022-09-29T23:51:39.489Z,97766.50
2022-09-29T23:54:42.651Z,97769.56
2022-09-29T23:57:46.094Z,97757.44
